createdAt,value
2017-11-24T00:01:46.800Z,97075.79
2017-11-24T00:04:14.619Z,97079.72
2017-11-24T00:06:42.143Z,97076.71
2017-11-24T00:09:09.703Z,97075.49
2017-11-24T00:11:37.311Z,97076.33
2017-11-24T00:14:04.868Z,97059.02
2017-11-24T00:16:32.429Z,97069.50
2017-11-24T00:18:59.986Z,97067.14
2017-11-24T00:21:27.546Z,97070.05
2017-11-24T00:23:55.105Z,97073.26
2017-11-24T00:26:23.059Z,97066.67
2017-11-24T00:28:50.581Z,97065.75
2017-11-24T00:31:18.108Z,97062.72
2017-11-24T00:33:45.675Z,97054.30
2017-11-24T00:36:13.196Z,97071.03
2017-11-24T00:38:40.715Z,97067.72
2017-11-24T00:41:08.633Z,97067.59
2017-11-24T00:43:36.216Z,97062.35
2017-11-24T00:46:03.753Z,97062.34
2017-11-24T00:48:31.311Z,97050.48
2017-11-24T00:50:58.879Z,97053.84
2017-11-24T00:53:26.429Z,97062.06
2017-11-24T00:55:54.180Z,97055.31
2017-11-24T00:58:21.701Z,97058.05
2017-11-24T01:00:49.224Z,97058.37
2017-11-24T01:03:16.978Z,97055.06
2017-11-24T01:05:44.533Z,97059.52
2017-11-24T01:08:12.064Z,97062.41
2017-11-24T01:10:39.958Z,97058.50
2017-11-24T01:13:07.522Z,97062.57
2017-11-24T01:15:35.047Z,97059.04
2017-11-24T01:18:02.736Z,97062.59
2017-11-24T01:20:30.251Z,97063.95
2017-11-24T01:22:57.768Z,97058.13
2017-11-24T01:25:25.620Z,97060.50
2017-11-24T01:27:53.181Z,97064.95
2017-11-24T01:30:20.756Z,97058.46
2017-11-24T01:32:48.587Z,97057.79
2017-11-24T01:35:16.164Z,97060.20
2017-11-24T01:37:43.722Z,97056.95
2017-11-24T01:40:11.292Z,97060.74
2017-11-24T01:42:38.842Z,97053.27
2017-11-24T01:45:06.400Z,97055.80
2017-11-24T01:47:34.216Z,97051.86
2017-11-24T01:50:01.730Z,97044.53
2017-11-24T01:52:29.281Z,97038.44
2017-11-24T01:54:57.249Z,97042.53
2017-11-24T01:57:24.809Z,97036.02
2017-11-24T01:59:52.320Z,97040.86
2017-11-24T02:02:19.929Z,97050.36
2017-11-24T02:04:47.521Z,97043.98
2017-11-24T02:07:15.046Z,97039.78
2017-11-24T02:09:42.891Z,97041.44
2017-11-24T02:12:10.411Z,97042.48
2017-11-24T02:14:37.927Z,97037.70
2017-11-24T02:17:05.646Z,97040.14
2017-11-24T02:19:33.169Z,97041.53
2017-11-24T02:22:00.707Z,97034.80
2017-11-24T02:24:28.574Z,97034.06
2017-11-24T02:26:58.774Z,97037.64
2017-11-24T02:29:26.298Z,97029.32
2017-11-24T02:31:54.200Z,97019.73
2017-11-24T02:34:21.821Z,97021.48
2017-11-24T02:36:49.345Z,97023.06
2017-11-24T02:39:17.080Z,97018.38
2017-11-24T02:41:44.663Z,97012.61
2017-11-24T02:44:12.340Z,97004.83
2017-11-24T02:46:39.900Z,97009.72
2017-11-24T02:49:07.428Z,97009.86
2017-11-24T02:51:35.001Z,97003.15
2017-11-24T02:54:02.571Z,96998.45
2017-11-24T02:56:30.103Z,96997.64
2017-11-24T02:58:57.618Z,96996.78
2017-11-24T03:01:25.171Z,96991.81
2017-11-24T03:03:52.702Z,96998.23
2017-11-24T03:06:20.252Z,96995.53
2017-11-24T03:08:47.950Z,97007.00
2017-11-24T03:11:15.471Z,96995.72
2017-11-24T03:13:43.075Z,96989.11
2017-11-24T03:16:11.001Z,97002.44
2017-11-24T03:18:38.563Z,96999.66
2017-11-24T03:21:06.118Z,97003.11
2017-11-24T03:23:33.703Z,96999.25
2017-11-24T03:26:01.212Z,96999.69
2017-11-24T03:28:28.723Z,97003.17
2017-11-24T03:30:56.293Z,96994.17
2017-11-24T03:33:23.815Z,96993.98
2017-11-24T03:35:51.372Z,96987.32
2017-11-24T03:38:18.946Z,96986.30
2017-11-24T03:40:46.490Z,96988.33
2017-11-24T03:43:14.047Z,96986.92
2017-11-24T03:45:41.755Z,96984.55
2017-11-24T03:48:09.279Z,96974.34
2017-11-24T03:50:36.842Z,96988.14
2017-11-24T03:53:04.593Z,96989.81
2017-11-24T03:55:32.152Z,96983.80
2017-11-24T03:57:59.720Z,96976.91
2017-11-24T04:00:27.447Z,96984.63
2017-11-24T04:02:54.976Z,96988.59
2017-11-24T04:05:22.506Z,96990.13
2017-11-24T04:07:50.151Z,96997.83
2017-11-24T04:10:17.668Z,97003.22
2017-11-24T04:12:45.183Z,96995.73
2017-11-24T04:15:13.157Z,96997.05
2017-11-24T04:17:40.675Z,96992.04
2017-11-24T04:20:08.191Z,96986.86
2017-11-24T04:22:35.764Z,96988.39
2017-11-24T04:25:03.292Z,96986.75
2017-11-24T04:27:30.839Z,96981.69
2017-11-24T04:29:58.595Z,96969.34
2017-11-24T04:32:26.153Z,96968.60
2017-11-24T04:34:53.892Z,96970.23
2017-11-24T04:37:21.762Z,96966.52
2017-11-24T04:39:49.272Z,96978.43
2017-11-24T04:42:16.789Z,96969.79
2017-11-24T04:44:44.460Z,96969.34
2017-11-24T04:47:12.040Z,96959.54
2017-11-24T04:49:39.578Z,96957.55
2017-11-24T04:52:07.239Z,96948.96
2017-11-24T04:54:34.761Z,96945.50
2017-11-24T04:57:02.297Z,96939.16
2017-11-24T04:59:29.929Z,96937.92
2017-11-24T05:01:57.475Z,96942.02
2017-11-24T05:04:25.035Z,96938.66
2017-11-24T05:06:52.580Z,96936.08
2017-11-24T05:09:20.096Z,96942.91
2017-11-24T05:11:47.614Z,96946.47
2017-11-24T05:14:15.368Z,96936.74
2017-11-24T05:16:43.036Z,96948.80
2017-11-24T05:19:10.593Z,96943.88
2017-11-24T05:21:38.147Z,96934.27
2017-11-24T05:24:05.709Z,96928.42
2017-11-24T05:26:33.271Z,96926.67
2017-11-24T05:29:00.912Z,96928.66
2017-11-24T05:31:28.425Z,96927.91
2017-11-24T05:33:55.949Z,96932.39
2017-11-24T05:36:23.509Z,96928.30
2017-11-24T05:38:51.066Z,96926.34
2017-11-24T05:41:18.626Z,96932.49
2017-11-24T05:43:46.390Z,96933.53
2017-11-24T05:46:13.967Z,96928.92
2017-11-24T05:48:41.489Z,96933.66
2017-11-24T05:51:09.168Z,96929.27
2017-11-24T05:53:36.728Z,96931.49
2017-11-24T05:56:04.287Z,96928.83
2017-11-24T05:58:32.235Z,96930.95
2017-11-24T06:00:59.763Z,96923.88
2017-11-24T06:03:27.287Z,96922.26
2017-11-24T06:05:54.852Z,96927.70
2017-11-24T06:08:22.377Z,96921.91
2017-11-24T06:10:49.931Z,96921.11
2017-11-24T06:13:17.508Z,96924.20
2017-11-24T06:15:45.076Z,96915.74
2017-11-24T06:18:12.654Z,96926.84
2017-11-24T06:20:40.225Z,96924.48
2017-11-24T06:23:07.748Z,96923.14
2017-11-24T06:25:35.304Z,96921.97
2017-11-24T06:28:02.856Z,96919.69
2017-11-24T06:30:30.428Z,96924.81
2017-11-24T06:32:57.981Z,96931.28
2017-11-24T06:35:25.743Z,96928.77
2017-11-24T06:37:53.303Z,96927.06
2017-11-24T06:40:20.870Z,96935.13
2017-11-24T06:42:48.626Z,96941.50
2017-11-24T06:45:16.187Z,96948.17
2017-11-24T06:47:43.744Z,96947.25
2017-11-24T06:50:11.319Z,96950.98
2017-11-24T06:52:38.845Z,96962.06
2017-11-24T06:55:06.377Z,96956.62
2017-11-24T06:57:33.925Z,96956.95
2017-11-24T07:00:01.486Z,96946.48
2017-11-24T07:02:29.019Z,96951.61
2017-11-24T07:04:56.760Z,96951.87
2017-11-24T07:07:24.280Z,96954.81
2017-11-24T07:09:51.801Z,96959.51
2017-11-24T07:12:19.363Z,96953.51
2017-11-24T07:14:46.888Z,96952.28
2017-11-24T07:17:14.412Z,96955.70
2017-11-24T07:19:42.015Z,96952.19
2017-11-24T07:22:09.553Z,96953.08
2017-11-24T07:24:37.089Z,96950.23
2017-11-24T07:27:04.688Z,96954.11
2017-11-24T07:29:32.260Z,96964.98
2017-11-24T07:31:59.807Z,96955.91
2017-11-24T07:34:27.452Z,96956.83
2017-11-24T07:36:54.982Z,96953.27
2017-11-24T07:39:22.503Z,96954.75
2017-11-24T07:41:50.076Z,96954.98
2017-11-24T07:44:17.603Z,96956.57
2017-11-24T07:46:45.137Z,96958.59
2017-11-24T07:49:12.787Z,96959.54
2017-11-24T07:51:40.345Z,96958.05
2017-11-24T07:54:07.884Z,96943.25
2017-11-24T07:56:35.705Z,96950.06
2017-11-24T07:59:03.578Z,96946.98
2017-11-24T08:01:31.849Z,96947.90
2017-11-24T08:03:59.718Z,96950.73
2017-11-24T08:06:27.537Z,96953.45
2017-11-24T08:08:55.482Z,96951.27
2017-11-24T08:11:24.441Z,96950.92
2017-11-24T08:13:52.204Z,96960.33
2017-11-24T08:16:20.045Z,96947.74
2017-11-24T08:18:49.239Z,96948.22
2017-11-24T08:21:17.861Z,96952.64
2017-11-24T08:23:45.614Z,96949.68
2017-11-24T08:26:13.582Z,96953.57
2017-11-24T08:28:43.191Z,96959.30
2017-11-24T08:31:11.159Z,96965.11
2017-11-24T08:33:39.128Z,96961.45
2017-11-24T08:36:07.609Z,96961.52
2017-11-24T08:38:35.183Z,96963.20
2017-11-24T08:41:03.136Z,96967.41
2017-11-24T08:43:30.720Z,96961.25
2017-11-24T08:45:58.408Z,96951.63
2017-11-24T08:48:31.983Z,96940.63
2017-11-24T08:50:59.858Z,96948.36
2017-11-24T08:53:28.532Z,96945.45
2017-11-24T08:55:57.538Z,96943.55
2017-11-24T08:58:25.164Z,96949.09
2017-11-24T09:00:53.903Z,96950.00
2017-11-24T09:03:22.022Z,96954.41
2017-11-24T09:05:50.215Z,96946.16
2017-11-24T09:08:18.054Z,96938.98
2017-11-24T09:10:46.338Z,96954.88
2017-11-24T09:13:16.380Z,96957.40
2017-11-24T09:15:44.163Z,96969.69
2017-11-24T09:18:12.090Z,96971.66
2017-11-24T09:20:40.670Z,96961.74
2017-11-24T09:23:08.236Z,96965.66
2017-11-24T09:25:36.100Z,96971.02
2017-11-24T09:28:03.991Z,96972.80
2017-11-24T09:30:33.673Z,96971.31
2017-11-24T09:33:01.538Z,96961.09
2017-11-24T09:35:29.714Z,96960.63
2017-11-24T09:37:57.477Z,96954.20
2017-11-24T09:40:25.866Z,96956.68
2017-11-24T09:43:00.212Z,96950.43
2017-11-24T09:45:31.981Z,96958.65
2017-11-24T09:48:01.976Z,96958.78
2017-11-24T09:50:30.859Z,96957.94
2017-11-24T09:52:59.318Z,96954.53
2017-11-24T09:55:26.877Z,96954.91
2017-11-24T09:57:54.623Z,96947.17
2017-11-24T10:00:22.145Z,96946.95
2017-11-24T10:02:49.672Z,96946.09
2017-11-24T10:05:17.421Z,96940.17
2017-11-24T10:07:44.990Z,96934.82
2017-11-24T10:10:12.538Z,96937.73
2017-11-24T10:12:40.124Z,96932.74
2017-11-24T10:15:07.638Z,96927.81
2017-11-24T10:17:35.163Z,96919.81
2017-11-24T10:20:02.966Z,96921.59
2017-11-24T10:22:36.106Z,96932.68
2017-11-24T10:25:03.935Z,96922.33
2017-11-24T10:27:31.504Z,96918.21
2017-11-24T10:29:59.053Z,96917.50
2017-11-24T10:32:26.817Z,96915.75
2017-11-24T10:34:54.333Z,96896.12
2017-11-24T10:37:21.856Z,96912.84
2017-11-24T10:39:49.504Z,96910.08
2017-11-24T10:42:17.053Z,96904.39
2017-11-24T10:44:44.613Z,96900.00
2017-11-24T10:47:12.168Z,96904.86
2017-11-24T10:49:39.674Z,96905.16
2017-11-24T10:52:07.203Z,96909.57
2017-11-24T10:54:34.952Z,96903.49
2017-11-24T10:57:02.529Z,96894.03
2017-11-24T10:59:30.069Z,96898.39
2017-11-24T11:01:57.628Z,96899.16
2017-11-24T11:04:25.143Z,96896.27
2017-11-24T11:06:52.659Z,96893.92
2017-11-24T11:09:20.408Z,96899.61
2017-11-24T11:11:47.968Z,96884.13
2017-11-24T11:14:15.494Z,96889.63
2017-11-24T11:16:43.276Z,96890.78
2017-11-24T11:19:10.798Z,96906.66
2017-11-24T11:21:38.319Z,96898.22
2017-11-24T11:24:06.154Z,96906.66
2017-11-24T11:26:33.671Z,96895.07
2017-11-24T11:29:01.197Z,96907.19
2017-11-24T11:31:29.055Z,96907.89
2017-11-24T11:33:56.615Z,96918.20
2017-11-24T11:36:24.177Z,96912.93
2017-11-24T11:38:51.937Z,96919.97
2017-11-24T11:41:19.495Z,96922.30
2017-11-24T11:43:47.069Z,96919.35
2017-11-24T11:46:14.628Z,96907.27
2017-11-24T11:48:42.174Z,96905.20
2017-11-24T11:51:09.724Z,96902.84
2017-11-24T11:53:37.495Z,96899.60
2017-11-24T11:56:05.085Z,96905.98
2017-11-24T11:58:32.719Z,96906.27
2017-11-24T12:01:00.284Z,96915.30
2017-11-24T12:03:27.837Z,96925.21
2017-11-24T12:05:55.406Z,96936.02
2017-11-24T12:08:23.095Z,96935.73
2017-11-24T12:10:50.619Z,96924.20
2017-11-24T12:13:18.174Z,96929.00
2017-11-24T12:15:45.938Z,96931.72
2017-11-24T12:18:13.497Z,96945.78
2017-11-24T12:20:41.075Z,96955.70
2017-11-24T12:23:08.668Z,96965.52
2017-11-24T12:25:36.188Z,96980.23
2017-11-24T12:28:03.722Z,96983.97
2017-11-24T12:30:31.700Z,96992.30
2017-11-24T12:32:59.261Z,96997.14
2017-11-24T12:35:26.780Z,96996.03
2017-11-24T12:37:54.684Z,97008.05
2017-11-24T12:40:22.200Z,97009.19
2017-11-24T12:42:49.723Z,97004.30
2017-11-24T12:45:17.476Z,96998.00
2017-11-24T12:47:44.995Z,96991.86
2017-11-24T12:50:12.512Z,96988.93
2017-11-24T12:52:40.072Z,96984.34
2017-11-24T12:55:07.601Z,96983.09
2017-11-24T12:57:35.172Z,96980.84
2017-11-24T13:00:02.739Z,96987.86
2017-11-24T13:02:30.276Z,96997.29
2017-11-24T13:04:58.882Z,96985.05
2017-11-24T13:07:26.447Z,96989.42
2017-11-24T13:09:53.980Z,96999.11
2017-11-24T13:12:21.536Z,97007.56
2017-11-24T13:14:49.484Z,97011.55
2017-11-24T13:17:17.002Z,97020.47
2017-11-24T13:19:44.521Z,97026.98
2017-11-24T13:22:12.168Z,97022.23
2017-11-24T13:24:39.845Z,97023.83
2017-11-24T13:27:07.403Z,97027.52
2017-11-24T13:29:35.153Z,97032.45
2017-11-24T13:32:02.728Z,97037.34
2017-11-24T13:34:30.389Z,97038.38
2017-11-24T13:36:57.948Z,97038.69
2017-11-24T13:39:25.507Z,97027.48
2017-11-24T13:41:53.271Z,97030.39
2017-11-24T13:44:21.225Z,97029.04
2017-11-24T13:46:49.025Z,97027.53
2017-11-24T13:49:16.780Z,97019.88
2017-11-24T13:51:44.633Z,97025.35
2017-11-24T13:54:12.188Z,97025.75
2017-11-24T13:56:39.955Z,97027.69
2017-11-24T13:59:07.720Z,97034.80
2017-11-24T14:01:36.201Z,97032.73
2017-11-24T14:04:03.719Z,97038.14
2017-11-24T14:06:31.420Z,97028.15
2017-11-24T14:08:59.073Z,97021.78
2017-11-24T14:11:26.587Z,97028.77
2017-11-24T14:13:54.303Z,97024.18
2017-11-24T14:16:21.863Z,97030.78
2017-11-24T14:18:49.443Z,97031.50
2017-11-24T14:21:17.291Z,97033.66
2017-11-24T14:23:44.864Z,97043.27
2017-11-24T14:26:12.444Z,97040.33
2017-11-24T14:28:39.979Z,97033.88
2017-11-24T14:31:07.525Z,97032.81
2017-11-24T14:33:35.040Z,97033.70
2017-11-24T14:36:02.724Z,97032.62
2017-11-24T14:38:30.244Z,97028.92
2017-11-24T14:40:57.759Z,97021.50
2017-11-24T14:43:25.423Z,97025.91
2017-11-24T14:45:53.096Z,97028.05
2017-11-24T14:48:28.834Z,97028.67
2017-11-24T14:50:56.508Z,97024.42
2017-11-24T14:53:24.363Z,97032.88
2017-11-24T14:55:52.201Z,97034.36
2017-11-24T14:58:19.798Z,97014.34
2017-11-24T15:00:47.354Z,97013.91
2017-11-24T15:03:14.956Z,97010.41
2017-11-24T15:05:42.484Z,97010.25
2017-11-24T15:08:10.331Z,97000.97
2017-11-24T15:10:38.016Z,96986.37
2017-11-24T15:13:05.535Z,96983.05
2017-11-24T15:15:33.122Z,96986.11
2017-11-24T15:18:00.875Z,96985.45
2017-11-24T15:20:28.657Z,96991.79
2017-11-24T15:22:56.200Z,96987.41
2017-11-24T15:25:24.069Z,96997.95
2017-11-24T15:27:51.595Z,97004.16
2017-11-24T15:30:19.183Z,97003.64
2017-11-24T15:32:46.845Z,97005.56
2017-11-24T15:35:14.403Z,97008.77
2017-11-24T15:37:41.952Z,97009.69
2017-11-24T15:40:09.624Z,97012.41
2017-11-24T15:42:37.183Z,97012.41
2017-11-24T15:45:04.699Z,97015.20
2017-11-24T15:47:32.304Z,97022.89
2017-11-24T15:49:59.860Z,97024.03
2017-11-24T15:52:27.626Z,97032.53
2017-11-24T15:54:55.286Z,97021.75
2017-11-24T15:57:22.950Z,97027.91
2017-11-24T15:59:50.506Z,97022.67
2017-11-24T16:02:18.372Z,97012.32
2017-11-24T16:04:46.139Z,97017.25
2017-11-24T16:07:13.708Z,97013.81
2017-11-24T16:09:41.667Z,97021.92
2017-11-24T16:12:09.226Z,97018.95
2017-11-24T16:14:36.752Z,97027.91
2017-11-24T16:17:04.853Z,97023.67
2017-11-24T16:19:32.517Z,97025.55
2017-11-24T16:22:00.230Z,97025.44
2017-11-24T16:24:28.472Z,97022.11
2017-11-24T16:26:56.319Z,97017.04
2017-11-24T16:29:23.879Z,97007.06
2017-11-24T16:31:51.675Z,97009.99
2017-11-24T16:34:19.196Z,97007.86
2017-11-24T16:36:46.865Z,97007.63
2017-11-24T16:39:14.833Z,97001.13
2017-11-24T16:41:42.595Z,96999.80
2017-11-24T16:44:10.157Z,97000.33
2017-11-24T16:46:37.923Z,97002.19
2017-11-24T16:49:05.477Z,97005.03
2017-11-24T16:51:33.036Z,97004.03
2017-11-24T16:54:00.868Z,96998.54
2017-11-24T16:56:28.403Z,96998.52
2017-11-24T16:58:55.963Z,96990.45
2017-11-24T17:01:23.886Z,96994.81
2017-11-24T17:03:51.446Z,96997.71
2017-11-24T17:06:19.108Z,96999.84
2017-11-24T17:08:46.906Z,96999.83
2017-11-24T17:11:14.542Z,96994.70
2017-11-24T17:13:42.154Z,97001.81
2017-11-24T17:16:11.005Z,97002.48
2017-11-24T17:18:38.562Z,97006.03
2017-11-24T17:21:06.207Z,97000.52
2017-11-24T17:23:33.787Z,96999.89
2017-11-24T17:26:01.343Z,97004.05
2017-11-24T17:28:28.868Z,97003.31
2017-11-24T17:30:56.440Z,97001.52
2017-11-24T17:33:24.000Z,96998.48
2017-11-24T17:35:52.481Z,97005.28
2017-11-24T17:38:20.273Z,97002.38
2017-11-24T17:40:48.212Z,97006.79
2017-11-24T17:43:15.758Z,97008.19
2017-11-24T17:45:43.339Z,97010.48
2017-11-24T17:48:11.114Z,97015.94
2017-11-24T17:50:38.960Z,97018.16
2017-11-24T17:53:07.041Z,97021.30
2017-11-24T17:55:34.693Z,97018.89
2017-11-24T17:58:02.252Z,97021.78
2017-11-24T18:00:29.871Z,97016.73
2017-11-24T18:02:57.543Z,97016.19
2017-11-24T18:05:25.093Z,97025.39
2017-11-24T18:07:52.883Z,97022.33
2017-11-24T18:10:20.664Z,97015.49
2017-11-24T18:12:48.887Z,97026.10
2017-11-24T18:15:16.600Z,97035.71
2017-11-24T18:17:44.266Z,97028.34
2017-11-24T18:20:11.856Z,97034.26
2017-11-24T18:22:39.995Z,97030.48
2017-11-24T18:25:07.831Z,97035.85
2017-11-24T18:27:35.489Z,97034.48
2017-11-24T18:30:03.497Z,97040.24
2017-11-24T18:32:31.256Z,97045.01
2017-11-24T18:34:58.883Z,97039.70
2017-11-24T18:37:27.601Z,97039.58
2017-11-24T18:39:55.468Z,97038.91
2017-11-24T18:42:23.324Z,97042.63
2017-11-24T18:44:51.107Z,97039.58
2017-11-24T18:47:18.881Z,97036.87
2017-11-24T18:49:46.544Z,97041.41
2017-11-24T18:52:14.594Z,97043.23
2017-11-24T18:54:42.473Z,97042.18
2017-11-24T18:57:11.050Z,97038.52
2017-11-24T18:59:38.920Z,97038.61
2017-11-24T19:02:06.678Z,97042.18
2017-11-24T19:04:34.444Z,97044.03
2017-11-24T19:07:02.304Z,97045.58
2017-11-24T19:09:29.964Z,97049.41
2017-11-24T19:11:57.839Z,97051.27
2017-11-24T19:14:25.741Z,97049.20
2017-11-24T19:16:53.666Z,97043.23
2017-11-24T19:19:21.283Z,97046.70
2017-11-24T19:21:50.014Z,97057.06
2017-11-24T19:24:17.675Z,97058.00
2017-11-24T19:26:45.338Z,97059.33
2017-11-24T19:29:13.312Z,97045.45
2017-11-24T19:31:41.172Z,97047.06
2017-11-24T19:34:09.216Z,97046.44
2017-11-24T19:36:37.211Z,97054.52
2017-11-24T19:39:04.979Z,97058.77
2017-11-24T19:41:32.742Z,97057.59
2017-11-24T19:44:00.558Z,97058.98
2017-11-24T19:46:28.474Z,97061.52
2017-11-24T19:48:56.136Z,97063.85
2017-11-24T19:51:24.212Z,97064.14
2017-11-24T19:53:52.093Z,97063.22
2017-11-24T19:56:23.569Z,97065.25
2017-11-24T19:58:51.464Z,97062.00
2017-11-24T20:01:19.166Z,97060.69
2017-11-24T20:03:46.919Z,97065.14
2017-11-24T20:06:15.000Z,97068.54
2017-11-24T20:08:42.955Z,97065.46
2017-11-24T20:11:10.719Z,97061.83
2017-11-24T20:13:38.699Z,97057.82
2017-11-24T20:16:07.090Z,97065.91
2017-11-24T20:18:34.788Z,97069.71
2017-11-24T20:21:02.800Z,97059.77
2017-11-24T20:23:30.671Z,97047.58
2017-11-24T20:25:59.388Z,97054.23
2017-11-24T20:28:28.449Z,97050.38
2017-11-24T20:30:57.341Z,97047.80
2017-11-24T20:33:25.108Z,97043.34
2017-11-24T20:35:52.865Z,97042.38
2017-11-24T20:38:21.543Z,97047.25
2017-11-24T20:41:01.167Z,97042.39
2017-11-24T20:43:28.773Z,97036.84
2017-11-24T20:45:56.311Z,97039.38
2017-11-24T20:48:25.202Z,97044.64
2017-11-24T20:50:52.790Z,97044.47
2017-11-24T20:53:20.627Z,97046.86
2017-11-24T20:55:48.492Z,97044.44
2017-11-24T20:58:16.096Z,97037.42
2017-11-24T21:00:43.713Z,97037.66
2017-11-24T21:03:11.747Z,97038.06
2017-11-24T21:05:39.293Z,97026.41
2017-11-24T21:08:06.952Z,97029.78
2017-11-24T21:10:34.795Z,97031.81
2017-11-24T21:13:02.415Z,97038.19
2017-11-24T21:15:30.093Z,97024.37
2017-11-24T21:17:58.045Z,97025.84
2017-11-24T21:20:25.836Z,97019.69
2017-11-24T21:22:53.590Z,97015.44
2017-11-24T21:25:21.375Z,97013.33
2017-11-24T21:27:49.123Z,97004.84
2017-11-24T21:30:16.889Z,97003.67
2017-11-24T21:32:44.678Z,96986.30
2017-11-24T21:35:12.212Z,96989.16
2017-11-24T21:37:39.902Z,96980.09
2017-11-24T21:40:13.158Z,96969.09
2017-11-24T21:42:40.712Z,96969.30
2017-11-24T21:45:08.483Z,96970.86
2017-11-24T21:47:36.308Z,96974.36
2017-11-24T21:50:04.082Z,96974.09
2017-11-24T21:52:31.879Z,96972.95
2017-11-24T21:54:59.725Z,96974.25
2017-11-24T21:57:27.507Z,96963.42
2017-11-24T21:59:55.098Z,96968.86
2017-11-24T22:02:22.949Z,96966.30
2017-11-24T22:04:50.597Z,96968.89
2017-11-24T22:07:18.360Z,96960.73
2017-11-24T22:09:46.123Z,96961.86
2017-11-24T22:12:13.666Z,96974.95
2017-11-24T22:14:41.184Z,96983.36
2017-11-24T22:17:09.071Z,96969.27
2017-11-24T22:19:36.620Z,96960.37
2017-11-24T22:22:04.282Z,96948.22
2017-11-24T22:24:32.029Z,96949.54
2017-11-24T22:26:59.878Z,96953.21
2017-11-24T22:29:27.721Z,96960.25
2017-11-24T22:31:55.691Z,96955.70
2017-11-24T22:34:23.383Z,96953.26
2017-11-24T22:36:51.117Z,96949.42
2017-11-24T22:39:18.983Z,96957.09
2017-11-24T22:41:46.754Z,96947.94
2017-11-24T22:44:14.612Z,96948.41
2017-11-24T22:46:42.685Z,96942.78
2017-11-24T22:49:10.346Z,96941.04
2017-11-24T22:51:37.908Z,96939.61
2017-11-24T22:54:05.754Z,96938.78
2017-11-24T22:56:33.329Z,96942.14
2017-11-24T22:59:00.881Z,96943.58
2017-11-24T23:01:28.474Z,96943.20
2017-11-24T23:03:55.992Z,96938.20
2017-11-24T23:06:23.511Z,96934.20
2017-11-24T23:08:51.221Z,96931.41
2017-11-24T23:11:18.747Z,96925.37
2017-11-24T23:13:46.260Z,96921.02
2017-11-24T23:16:13.833Z,96923.43
2017-11-24T23:18:41.361Z,96917.62
2017-11-24T23:21:08.922Z,96916.63
2017-11-24T23:23:36.864Z,96911.39
2017-11-24T23:26:04.384Z,96913.53
2017-11-24T23:28:31.916Z,96907.00
2017-11-24T23:30:59.759Z,96901.28
2017-11-24T23:33:27.332Z,96892.42
2017-11-24T23:35:55.117Z,96895.42
2017-11-24T23:38:22.999Z,96890.03
2017-11-24T23:40:50.520Z,96887.66
2017-11-24T23:43:18.081Z,96883.71
2017-11-24T23:45:45.637Z,96885.08
2017-11-24T23:48:13.198Z,96882.77
2017-11-24T23:50:40.759Z,96879.14
2017-11-24T23:53:08.496Z,96879.62
2017-11-24T23:55:36.015Z,96885.70
2017-11-24T23:58:03.538Z,96875.58
